THY1GL LTFM-LTFE
Flight info
| Callsign | THY1GL |
|---|---|
| Flight time | N/A |
| Altitude | 29000 |
| Route | RATVU1E/36 RATVU UT35 NUMTI/N0481F300 DCT KULAR/N0482F290 UT44 LAVTA UW87 KAVAK |
| Aircraft | B77W/H-SDE1E2E3FGHIJ2J3J4J5M1RWXY/LB1D1 |
Departure
| Time | 2026-05-04 17:25 |
|---|---|
| Airport | İstanbul Airport (LTFM) |
Arrival
| Time | N/A |
|---|---|
| Airport | Milas Bodrum International Airport (LTFE) |
| Time | Latitude | Longitude | Altitude | Speed | Heading |
|---|---|---|---|---|---|
| 2026-05-04 16:56 | 41.26286 | 28.74875 | 318 ft | 0 kts | 286° |
| 2026-05-04 17:07 | 41.26286 | 28.74876 | 318 ft | 0 kts | 286° |
| 2026-05-04 17:18 | 41.26282 | 28.74897 | 316 ft | 2 kts | 282° |
| 2026-05-04 17:19 | 41.26279 | 28.74941 | 317 ft | 2 kts | 266° |
| 2026-05-04 17:19 | 41.26288 | 28.74982 | 316 ft | 2 kts | 233° |
| 2026-05-04 17:20 | 41.26313 | 28.75009 | 317 ft | 2 kts | 200° |
| 2026-05-04 17:20 | 41.26321 | 28.75012 | 317 ft | 0 kts | 197° |
| 2026-05-04 17:23 | 41.26250 | 28.75034 | 318 ft | 10 kts | 125° |
| 2026-05-04 17:23 | 41.26242 | 28.75159 | 318 ft | 18 kts | 88° |
| 2026-05-04 17:23 | 41.26244 | 28.75523 | 319 ft | 0 kts | 89° |
| 2026-05-04 17:24 | 41.26323 | 28.75665 | 320 ft | 16 kts | 2° |
| 2026-05-04 17:25 | 41.26578 | 28.75664 | 315 ft | 78 kts | 359° |
| 2026-05-04 17:25 | 41.28618 | 28.75669 | 1045 ft | 173 kts | 2° |
| 2026-05-04 17:26 | 41.30799 | 28.74902 | 2613 ft | 184 kts | 340° |
| 2026-05-04 17:26 | 41.34951 | 28.72510 | 3955 ft | 237 kts | 341° |
| 2026-05-04 17:27 | 41.38036 | 28.72521 | 5338 ft | 236 kts | 36° |
| 2026-05-04 17:27 | 41.39735 | 28.76275 | 7018 ft | 252 kts | 75° |
| 2026-05-04 17:28 | 41.38952 | 28.80964 | 8411 ft | 276 kts | 109° |
| 2026-05-04 17:29 | 41.38434 | 28.88248 | 10339 ft | 270 kts | 83° |
| 2026-05-04 17:29 | 41.35332 | 28.94514 | 12460 ft | 315 kts | 158° |
| 2026-05-04 17:30 | 41.28580 | 28.94842 | 14678 ft | 331 kts | 176° |
| 2026-05-04 17:31 | 41.23942 | 28.94835 | 16241 ft | 337 kts | 180° |